TFM - Tactical Decision Aid
ID: Runway Winds: CIG/VIS Threshold:

KGTR - Golden Triangle Arpt, MS, US

Updated at: 0940 UTC 07 Dec 2022
Latest TAF at: 0520 UTC 07 Dec 2022

TAF Board

Time0856Z 07/10Z 07/11Z 07/12Z 07/13Z 07/14Z 07/15Z 07/16Z 07/17Z 07/18Z 07/19Z 07/20Z 07/21Z 07/22Z>>
Type OBS PRVL PRVL PRVL PRVL PRVL PRVL PRVL PRVL PRVL PRVL PRVL PRVL PRVL
VIS 10 >6 >6 >6 >6 >6 >6 >6 >6 >6 >6 >6 >6 >6
CIG 55 50 50 50 50 50 50 27 27 27 45 45 45 45
Cover OVC OVC OVC OVC OVC OVC OVC BKN BKN BKN BKN BKN BKN BKN
FltCat VFR VFR VFR VFR VFR VFR VFR MVFR MVFR MVFR VFR VFR VFR VFR
WX -- -- -- -- -- -- -- VCSH VCSH VCSH -- -- -- --
WDir 180 180 180 180 180 180 180 210 210 210 220 220 220 220
WSpd 6 6 6 6 6 6 6 8 8 8 8 8 8 8
WGst -- -- -- -- -- -- -- -- -- -- -- -- -- --
WSHgt -- -- -- -- -- -- -- -- -- -- -- -- -- --
WSDir -- -- -- -- -- -- -- -- -- -- -- -- -- --
WSSpd -- -- -- -- -- -- -- -- -- -- -- -- -- --

TDA Impact Legend

  None Marginal Slight Moderate High
Visibility (sm) >5 3≤X≤5 2≤X<3 0.5≤X<2 <0.5
Ceiling (100 ft) >30 10≤X≤30 6≤X<10 2≤X<6 <2
Wind Speed (kt) <15 15≤X<25 25≤X<30 ≥30
Wind Gust (kt) <15 15≤X<25 25≤X<35 ≥35
Weather No Wx Reported VCTS -TS,-FZRA TS,FZRA +TS,+FZRA
TAF
KGTR 070520Z 0706/0806 18006KT P6SM BKN050 OVC120
  FM071600 21008KT P6SM VCSH BKN027
  FM071900 22008KT P6SM BKN045


METAR
KGTR 070856Z AUTO 18006KT 10SM OVC055 20/19 A3017 RMK AO2 SLP222 T02000189 53012
KGTR 070756Z AUTO 18005KT 10SM OVC060 20/19 A3016 RMK AO2 SLP218 T02000189
KGTR 070656Z AUTO 17008KT 10SM OVC055 20/19 A3014 RMK AO2 SLP212 T02000189

Radar Display
Forecast Discussion